Accueil
METAR-TAF:

METAR-TAF

Aéroports :

Aérodrome de Logrogne

Logroño, Espagne

latitude: 42-27N, longitude: 002-20W, altitude: 353 m

Observation

Le bulletin a été fait il y a 17 minutes, à 05:30 UTC
Vent 4 kt de direction variable
Température 19°C
Humidité 78%
Pression 1027 hPa
Visibilité 10 km ou plus
Nuages fragmentés à une hauteur de 5200 ft

METAR: LELO 240530Z VRB04KT 9999 BKN052 19/15 Q1027

Heure: 07:47 (05:47 UTC)

Prévision

Le bulletin a été fait il y a 3 heures et 47 minutes, à 02:00 UTC
Prévision valable du 24 à 03 UTC au 24 à 12 UTC
Vent 9 kt de ouest
Visibilité 10 km ou plus
Nuages fragmentés à une hauteur de 1500 ft

TAF: LELO 240200Z 2403/2412 28009KT 9999 BKN015

Observations et prévisions météorologiques de plus de 4000 aéroports (messages METAR et TAF).

Les stations disponibles sont représentées par des disques jaunes et rouges sur la carte.

Passer la souris dessus pour voir le nom de la station.

Cliquer dessus pour voir les observations et prévisions météorologiques.

Pour changer de carte: cliquez sur les boutons verts avec une croix noire pour zoomer, sur le bouton vert avec un tiret pour effectuer un zoom arrière, ou sur les flèches vertes pour les cartes adjacentes.


METAR-TAF: